Time;durP1;ratioP1;P1;durP2;ratioP2;P2;SDS_P1;SDS_P2;PMS_P1;PMS_P2;Temp;Humidity;BMP_temperature;BMP_pressure;BME280_temperature;BME280_humidity;BME280_pressure;Samples;Min_cycle;Max_cycle;Signal;HPM_P1;HPM_P2
2022/06/06 00:00:48;;;;;;;109.55;49.70;;;;;;;;;;5327942;27;20036;-86
2022/06/06 00:03:23;;;;;;;99.78;46.45;;;;;;;;;;5317763;27;20074;-86
2022/06/06 00:05:54;;;;;;;97.20;47.42;;;;;;;;;;5291176;27;20028;-86
2022/06/06 00:08:29;;;;;;;103.35;48.95;;;;;;;;;;5303374;28;20036;-87
2022/06/06 00:11:01;;;;;;;102.43;46.00;;;;;;;;;;5300999;27;20021;-86
2022/06/06 00:13:36;;;;;;;99.45;46.30;;;;;;;;;;5301038;28;20115;-86
2022/06/06 00:16:08;;;;;;;111.07;47.22;;;;;;;;;;5295146;27;20107;-86
2022/06/06 00:18:44;;;;;;;94.47;47.00;;;;;;;;;;5315223;27;20024;-86
2022/06/06 00:21:15;;;;;;;94.30;43.65;;;;;;;;;;5296800;28;20529;-86
2022/06/06 00:24:04;;;;;;;102.88;45.65;;;;;;;;;;5300698;28;20052;-86
2022/06/06 00:26:38;;;;;;;96.47;45.65;;;;;;;;;;5297750;27;20040;-86
2022/06/06 00:29:19;;;;;;;109.38;45.38;;;;;;;;;;5293659;27;21332;-86
2022/06/06 00:34:49;;;;;;;99.85;43.83;;;;;;;;;;5311700;27;20469;-86
2022/06/06 00:37:26;;;;;;;84.25;39.88;;;;;;;;;;5295732;27;20035;-87
2022/06/06 00:40:04;;;;;;;95.75;42.45;;;;;;;;;;5293748;27;20131;-87
2022/06/06 00:42:41;;;;;;;92.35;43.85;;;;;;;;;;5292068;27;20079;-86
2022/06/06 00:45:32;;;;;;;90.80;43.83;;;;;;;;;;5298332;27;20064;-87
2022/06/06 00:48:22;;;;;;;92.32;42.55;;;;;;;;;;5310817;27;20030;-86
2022/06/06 00:51:00;;;;;;;83.20;41.92;;;;;;;;;;5309998;27;20032;-86
2022/06/06 00:53:57;;;;;;;86.90;42.45;;;;;;;;;;5308461;27;20032;-86
2022/06/06 00:56:32;;;;;;;;;;;;;;;;;;5297575;27;20430;-87
2022/06/06 00:59:12;;;;;;;86.22;42.25;;;;;;;;;;5331497;27;19959;-86
2022/06/06 01:01:46;;;;;;;85.03;41.42;;;;;;;;;;5300171;28;20062;-87
2022/06/06 01:04:22;;;;;;;83.93;40.25;;;;;;;;;;5302487;28;20036;-87
2022/06/06 01:06:59;;;;;;;89.18;44.15;;;;;;;;;;5299836;28;20451;-87
2022/06/06 01:09:39;;;;;;;90.47;44.97;;;;;;;;;;5321197;28;20043;-87
2022/06/06 01:12:17;;;;;;;86.18;44.13;;;;;;;;;;5296063;27;20067;-86
2022/06/06 01:15:04;;;;;;;98.90;47.00;;;;;;;;;;5301527;27;20035;-87
2022/06/06 01:18:04;;;;;;;97.25;47.25;;;;;;;;;;5313499;27;20469;-87
2022/06/06 01:20:55;;;;;;;105.68;50.55;;;;;;;;;;5324239;27;20112;-87
2022/06/06 01:23:35;;;;;;;95.80;49.17;;;;;;;;;;5329684;27;20032;-87
2022/06/06 01:26:21;;;;;;;104.05;51.80;;;;;;;;;;5310853;27;20033;-87
2022/06/06 01:28:58;;;;;;;105.88;53.38;;;;;;;;;;5291095;27;20514;-87
2022/06/06 01:34:50;;;;;;;103.60;52.13;;;;;;;;;;5311716;27;20028;-86
2022/06/06 01:37:34;;;;;;;101.82;54.10;;;;;;;;;;5315132;27;20028;-86
2022/06/06 01:40:08;;;;;;;96.78;52.15;;;;;;;;;;5313319;27;20108;-87
2022/06/06 01:42:56;;;;;;;94.18;49.53;;;;;;;;;;5293072;27;20032;-86
2022/06/06 01:45:54;;;;;;;94.32;51.28;;;;;;;;;;5297822;27;20404;-86
2022/06/06 01:48:32;;;;;;;;;;;;;;;;;;5309231;27;20503;-86
2022/06/06 01:51:17;;;;;;;91.88;49.65;;;;;;;;;;5311648;27;19927;-87
2022/06/06 01:53:52;;;;;;;88.78;46.90;;;;;;;;;;5291913;27;20495;-86
2022/06/06 01:56:35;;;;;;;91.75;46.03;;;;;;;;;;5310946;27;20169;-86
2022/06/06 01:59:06;;;;;;;79.97;45.88;;;;;;;;;;5296176;27;20032;-87
2022/06/06 02:01:50;;;;;;;90.68;44.55;;;;;;;;;;5296516;28;20032;-87
2022/06/06 02:04:28;;;;;;;81.20;44.60;;;;;;;;;;5304938;28;20028;-87
2022/06/06 02:07:06;;;;;;;76.97;42.67;;;;;;;;;;5292329;27;20044;-87
2022/06/06 02:09:47;;;;;;;81.45;43.70;;;;;;;;;;5294686;27;20124;-86
2022/06/06 02:12:22;;;;;;;69.82;40.50;;;;;;;;;;5315933;27;20622;-86
2022/06/06 02:14:55;;;;;;;68.30;39.22;;;;;;;;;;5317311;27;20062;-86
2022/06/06 02:17:32;;;;;;;68.85;38.22;;;;;;;;;;5322171;27;20032;-86
2022/06/06 02:20:17;;;;;;;69.88;38.03;;;;;;;;;;5338304;27;20024;-87
2022/06/06 02:22:52;;;;;;;67.90;37.60;;;;;;;;;;5314822;27;20048;-86
2022/06/06 02:25:29;;;;;;;68.25;37.50;;;;;;;;;;5300571;27;20040;-87
2022/06/06 02:28:03;;;;;;;60.50;36.25;;;;;;;;;;5307922;28;20031;-86
2022/06/06 02:30:36;;;;;;;66.72;37.75;;;;;;;;;;5294525;27;20024;-87
2022/06/06 02:33:08;;;;;;;67.15;37.80;;;;;;;;;;5312629;27;20115;-87
2022/06/06 02:35:53;;;;;;;70.03;38.60;;;;;;;;;;5296546;27;20115;-87
2022/06/06 02:38:25;;;;;;;72.03;40.55;;;;;;;;;;5325351;27;20343;-86
2022/06/06 02:41:07;;;;;;;72.32;40.00;;;;;;;;;;5302282;28;20511;-86
2022/06/06 02:43:56;;;;;;;69.65;40.80;;;;;;;;;;5294210;27;20077;-86
2022/06/06 02:46:28;;;;;;;69.47;40.33;;;;;;;;;;5292586;27;20349;-87
2022/06/06 02:48:59;;;;;;;69.28;37.50;;;;;;;;;;5330646;27;20040;-87
2022/06/06 02:51:38;;;;;;;63.65;37.15;;;;;;;;;;5291946;27;20031;-87
2022/06/06 02:54:12;;;;;;;65.53;37.25;;;;;;;;;;5293164;27;20094;-87
2022/06/06 02:56:47;;;;;;;61.92;37.47;;;;;;;;;;5293649;28;20375;-86
2022/06/06 02:59:20;;;;;;;64.28;36.00;;;;;;;;;;5288564;28;20057;-87
2022/06/06 03:01:56;;;;;;;63.65;37.63;;;;;;;;;;5326904;27;20511;-86
2022/06/06 03:04:28;;;;;;;67.30;38.78;;;;;;;;;;5291986;28;20074;-87
2022/06/06 03:07:03;;;;;;;65.70;39.55;;;;;;;;;;5292215;28;20483;-87
2022/06/06 03:09:52;;;;;;;64.50;37.60;;;;;;;;;;5291630;27;20028;-86
2022/06/06 03:12:30;;;;;;;65.53;38.22;;;;;;;;;;5309867;27;20176;-86
2022/06/06 03:15:20;;;;;;;61.78;37.10;;;;;;;;;;5296633;28;20048;-86
2022/06/06 03:21:09;;;;;;;60.13;37.28;;;;;;;;;;5308157;28;20040;-86
2022/06/06 03:23:55;;;;;;;57.83;35.25;;;;;;;;;;5308897;27;20036;-86
2022/06/06 03:26:42;;;;;;;59.70;35.33;;;;;;;;;;5294895;27;20070;-86
2022/06/06 03:29:38;;;;;;;61.20;36.92;;;;;;;;;;5305853;27;20460;-86
2022/06/06 03:32:29;;;;;;;56.92;35.10;;;;;;;;;;5287747;27;20035;-86
2022/06/06 03:35:03;;;;;;;55.13;34.65;;;;;;;;;;5321913;27;20036;-86
2022/06/06 03:37:44;;;;;;;55.22;34.30;;;;;;;;;;5308347;27;20029;-85
2022/06/06 03:40:17;;;;;;;54.53;33.88;;;;;;;;;;5317032;28;20143;-85
2022/06/06 03:42:58;;;;;;;47.00;30.63;;;;;;;;;;5315342;27;20040;-86
2022/06/06 03:45:40;;;;;;;46.97;31.20;;;;;;;;;;5292979;28;20124;-87
2022/06/06 03:48:26;;;;;;;45.17;30.48;;;;;;;;;;5294221;28;20115;-86
2022/06/06 03:51:14;;;;;;;45.88;29.98;;;;;;;;;;5311614;27;20107;-87
2022/06/06 03:53:45;;;;;;;47.63;30.92;;;;;;;;;;5315841;27;20055;-86
2022/06/06 03:56:32;;;;;;;49.07;30.03;;;;;;;;;;5297796;28;20056;-87
2022/06/06 03:59:04;;;;;;;48.53;30.13;;;;;;;;;;5308196;28;20377;-86
2022/06/06 04:01:39;;;;;;;43.85;27.85;;;;;;;;;;5317496;27;20464;-87
2022/06/06 04:04:11;;;;;;;45.58;28.67;;;;;;;;;;5292578;28;20031;-86
2022/06/06 04:06:43;;;;;;;52.30;29.63;;;;;;;;;;5302228;28;20024;-86
2022/06/06 04:09:15;;;;;;;44.20;27.52;;;;;;;;;;5289590;28;20583;-87
2022/06/06 04:11:58;;;;;;;45.42;28.05;;;;;;;;;;5293021;28;20218;-86
2022/06/06 04:14:38;;;;;;;43.70;28.48;;;;;;;;;;5305923;27;20379;-87
2022/06/06 04:17:13;;;;;;;41.63;26.23;;;;;;;;;;5287987;28;20054;-87
2022/06/06 04:19:50;;;;;;;40.92;24.85;;;;;;;;;;5325083;27;20521;-87
2022/06/06 04:22:29;;;;;;;42.95;25.48;;;;;;;;;;5294466;28;20055;-86
2022/06/06 04:25:21;;;;;;;39.50;26.30;;;;;;;;;;5313890;27;20119;-87
2022/06/06 04:27:59;;;;;;;35.40;23.80;;;;;;;;;;5309383;27;20403;-87
2022/06/06 04:30:34;;;;;;;42.85;24.10;;;;;;;;;;5317224;27;20028;-87
2022/06/06 04:33:19;;;;;;;35.20;23.42;;;;;;;;;;5325152;27;20047;-87
2022/06/06 04:36:23;;;;;;;31.52;20.60;;;;;;;;;;5320435;27;20362;-87
2022/06/06 04:39:01;;;;;;;30.33;20.77;;;;;;;;;;5284997;28;20086;-87
2022/06/06 04:41:44;;;;;;;26.13;20.75;;;;;;;;;;5296674;28;20435;-87
2022/06/06 04:44:20;;;;;;;27.42;19.33;;;;;;;;;;5287808;27;20051;-87
2022/06/06 04:46:51;;;;;;;32.92;20.13;;;;;;;;;;5322087;27;20025;-87
2022/06/06 04:49:25;;;;;;;26.53;19.67;;;;;;;;;;5293646;28;20031;-87
2022/06/06 04:51:57;;;;;;;26.90;19.40;;;;;;;;;;5309998;27;20037;-86
2022/06/06 04:54:30;;;;;;;26.45;18.92;;;;;;;;;;5295980;28;20203;-87
2022/06/06 04:57:02;;;;;;;26.30;21.70;;;;;;;;;;5290262;28;20112;-87
2022/06/06 04:59:35;;;;;;;22.67;20.13;;;;;;;;;;5308542;28;20169;-87
2022/06/06 05:02:06;;;;;;;25.65;20.88;;;;;;;;;;5283315;28;20143;-88
2022/06/06 05:04:38;;;;;;;26.10;20.27;;;;;;;;;;5294004;28;20685;-87
2022/06/06 05:07:12;;;;;;;24.83;21.00;;;;;;;;;;5302417;28;20028;-86
2022/06/06 05:09:52;;;;;;;27.65;23.70;;;;;;;;;;5298956;28;20048;-87
2022/06/06 05:12:32;;;;;;;26.35;23.20;;;;;;;;;;5309409;27;20481;-88
2022/06/06 05:15:13;;;;;;;27.80;24.35;;;;;;;;;;5302955;27;20052;-87
2022/06/06 05:18:08;;;;;;;26.98;23.75;;;;;;;;;;5287038;28;20380;-88
2022/06/06 05:20:56;;;;;;;28.90;24.80;;;;;;;;;;5289262;28;20174;-88
2022/06/06 05:26:56;;;;;;;27.13;23.42;;;;;;;;;;5300644;28;20028;-88
2022/06/06 05:29:33;;;;;;;26.65;22.27;;;;;;;;;;5305404;28;20040;-88
2022/06/06 05:32:28;;;;;;;26.77;22.27;;;;;;;;;;5295948;28;20035;-87
2022/06/06 05:35:32;;;;;;;23.75;20.42;;;;;;;;;;5290514;28;20039;-87
2022/06/06 05:38:03;;;;;;;23.85;19.63;;;;;;;;;;5301772;28;20047;-87
2022/06/06 05:40:36;;;;;;;18.97;17.07;;;;;;;;;;5306648;28;20033;-83
2022/06/06 05:43:34;;;;;;;18.83;16.85;;;;;;;;;;5305755;28;20278;-84
2022/06/06 05:46:17;;;;;;;18.38;16.50;;;;;;;;;;5311073;28;20029;-84
2022/06/06 05:48:58;;;;;;;19.30;17.30;;;;;;;;;;5288468;28;20037;-84
2022/06/06 05:51:44;;;;;;;17.75;16.00;;;;;;;;;;5304580;28;20431;-84
2022/06/06 05:54:35;;;;;;;17.83;16.02;;;;;;;;;;5292543;28;20071;-85
2022/06/06 05:57:21;;;;;;;19.60;16.38;;;;;;;;;;5294987;28;20021;-85
2022/06/06 06:00:16;;;;;;;19.38;16.83;;;;;;;;;;5291665;28;20033;-84
2022/06/06 06:03:06;;;;;;;17.35;15.55;;;;;;;;;;5295539;28;20090;-84
2022/06/06 06:05:38;;;;;;;18.10;15.90;;;;;;;;;;5295679;28;20048;-86
2022/06/06 06:08:18;;;;;;;17.17;15.40;;;;;;;;;;5299382;28;20025;-86
2022/06/06 06:10:49;;;;;;;18.40;15.27;;;;;;;;;;5328805;27;20421;-86
2022/06/06 06:13:41;;;;;;;15.30;13.83;;;;;;;;;;5298969;28;20056;-85
2022/06/06 06:16:13;;;;;;;14.70;13.00;;;;;;;;;;5271969;28;20119;-85
2022/06/06 06:18:52;;;;;;;12.52;11.02;;;;;;;;;;5291646;28;20029;-85
2022/06/06 06:21:27;;;;;;;10.57;9.27;;;;;;;;;;5302952;28;20112;-85
2022/06/06 06:24:19;;;;;;;10.27;9.15;;;;;;;;;;5304618;28;20029;-85
2022/06/06 06:26:51;;;;;;;9.02;8.05;;;;;;;;;;5285890;28;20036;-85
2022/06/06 06:29:25;;;;;;;10.13;7.32;;;;;;;;;;5290778;28;20494;-82
2022/06/06 06:32:14;;;;;;;9.43;6.40;;;;;;;;;;5299627;28;20021;-83
2022/06/06 06:34:46;;;;;;;8.60;5.85;;;;;;;;;;5294220;28;20111;-83
2022/06/06 06:37:32;;;;;;;7.20;4.20;;;;;;;;;;5323855;27;20116;-84
2022/06/06 06:40:09;;;;;;;6.43;4.68;;;;;;;;;;5302706;28;20044;-83
2022/06/06 06:43:03;;;;;;;5.38;4.13;;;;;;;;;;5304543;28;20040;-83
2022/06/06 06:45:37;;;;;;;7.07;3.65;;;;;;;;;;5277055;28;20064;-84
2022/06/06 06:48:13;;;;;;;5.45;3.20;;;;;;;;;;5290113;28;20469;-83
2022/06/06 06:50:53;;;;;;;3.95;3.35;;;;;;;;;;5288973;28;20590;-84
2022/06/06 06:53:43;;;;;;;4.45;3.22;;;;;;;;;;5303280;28;20465;-84
2022/06/06 06:56:33;;;;;;;3.72;2.80;;;;;;;;;;5298130;28;20085;-84
2022/06/06 06:59:12;;;;;;;4.72;2.63;;;;;;;;;;5294304;28;20519;-84
2022/06/06 07:10:55;;;;;;;3.47;1.70;;;;;;;;;;5323592;27;20041;-86
2022/06/06 07:13:45;;;;;;;2.63;1.55;;;;;;;;;;5322439;28;20031;-85
2022/06/06 07:16:21;;;;;;;3.83;1.50;;;;;;;;;;5325768;27;20032;-85
2022/06/06 07:18:55;;;;;;;4.35;1.70;;;;;;;;;;5329131;27;20103;-85
2022/06/06 07:21:27;;;;;;;2.03;1.30;;;;;;;;;;5305939;27;20136;-86
2022/06/06 07:23:59;;;;;;;3.03;1.40;;;;;;;;;;5335336;27;20127;-86
2022/06/06 07:26:32;;;;;;;2.28;1.60;;;;;;;;;;5313328;27;20086;-85
2022/06/06 07:29:08;;;;;;;1.52;1.20;;;;;;;;;;5305544;28;20135;-86
2022/06/06 07:31:55;;;;;;;2.70;1.50;;;;;;;;;;5288005;28;20040;-85
2022/06/06 07:34:44;;;;;;;4.32;1.52;;;;;;;;;;5304372;28;20079;-85
2022/06/06 07:37:24;;;;;;;2.92;1.50;;;;;;;;;;5309458;27;20032;-86
2022/06/06 07:40:04;;;;;;;3.10;1.48;;;;;;;;;;5296166;28;20032;-85
2022/06/06 07:42:48;;;;;;;1.38;1.23;;;;;;;;;;5319617;27;20024;-85
2022/06/06 07:45:19;;;;;;;3.33;1.63;;;;;;;;;;5340190;27;20391;-85
2022/06/06 07:48:09;;;;;;;4.07;1.60;;;;;;;;;;5336692;27;20034;-86
2022/06/06 07:50:40;;;;;;;4.47;1.20;;;;;;;;;;5306766;28;20111;-86
2022/06/06 07:53:21;;;;;;;3.13;1.27;;;;;;;;;;5299069;27;20198;-85
2022/06/06 07:55:55;;;;;;;3.45;1.23;;;;;;;;;;5307462;27;20286;-86
2022/06/06 07:58:49;;;;;;;3.10;1.08;;;;;;;;;;5303459;27;20036;-86
2022/06/06 08:01:37;;;;;;;3.58;1.30;;;;;;;;;;5312191;27;20020;-86
2022/06/06 08:04:28;;;;;;;3.25;1.20;;;;;;;;;;5276836;28;20121;-85
2022/06/06 08:07:22;;;;;;;2.83;1.27;;;;;;;;;;5291846;28;20136;-85
2022/06/06 08:10:01;;;;;;;2.35;1.35;;;;;;;;;;5297869;28;20029;-85
2022/06/06 08:12:40;;;;;;;2.65;1.38;;;;;;;;;;5282011;28;20035;-86
2022/06/06 08:15:11;;;;;;;2.20;1.27;;;;;;;;;;5293825;28;20375;-86
2022/06/06 08:17:49;;;;;;;2.40;1.43;;;;;;;;;;5290822;28;20024;-86
2022/06/06 08:20:22;;;;;;;3.28;1.50;;;;;;;;;;5292371;28;20033;-86
2022/06/06 08:22:57;;;;;;;2.63;1.20;;;;;;;;;;5281498;28;20036;-86
2022/06/06 08:25:29;;;;;;;2.22;1.13;;;;;;;;;;5291942;28;20452;-85
2022/06/06 08:28:01;;;;;;;2.20;0.90;;;;;;;;;;5278421;28;20075;-85
2022/06/06 08:30:32;;;;;;;5.40;1.40;;;;;;;;;;5294912;28;20027;-85
2022/06/06 08:33:04;;;;;;;2.33;1.33;;;;;;;;;;5280959;28;20481;-85
2022/06/06 08:35:52;;;;;;;2.03;1.23;;;;;;;;;;5270667;28;20036;-85
2022/06/06 08:38:24;;;;;;;4.85;1.52;;;;;;;;;;5271693;28;20787;-85
2022/06/06 08:41:04;;;;;;;2.90;1.30;;;;;;;;;;5270164;28;20037;-85
2022/06/06 08:43:41;;;;;;;3.40;1.00;;;;;;;;;;5269954;28;20061;-85
2022/06/06 08:46:15;;;;;;;3.33;1.23;;;;;;;;;;5276181;28;20033;-86
2022/06/06 08:48:55;;;;;;;1.92;1.00;;;;;;;;;;5274424;28;20043;-85
2022/06/06 08:51:30;;;;;;;3.65;1.30;;;;;;;;;;5300030;27;20487;-84
2022/06/06 08:54:18;;;;;;;6.05;2.30;;;;;;;;;;5280061;28;20405;-85
2022/06/06 08:56:49;;;;;;;4.63;3.63;;;;;;;;;;5270615;28;20478;-84
2022/06/06 08:59:26;;;;;;;5.27;2.90;;;;;;;;;;5267786;28;20041;-85
2022/06/06 09:02:07;;;;;;;3.67;2.88;;;;;;;;;;5306057;27;20290;-85
2022/06/06 09:04:38;;;;;;;4.43;2.50;;;;;;;;;;5291189;28;20100;-83
2022/06/06 09:07:38;;;;;;;4.40;2.50;;;;;;;;;;5288544;28;20450;-84
2022/06/06 09:10:09;;;;;;;3.83;2.40;;;;;;;;;;5294946;28;20282;-85
2022/06/06 09:12:40;;;;;;;5.50;2.13;;;;;;;;;;5306420;27;20024;-85
2022/06/06 09:15:38;;;;;;;4.03;2.67;;;;;;;;;;5313897;27;20107;-84
2022/06/06 09:18:15;;;;;;;2.72;2.00;;;;;;;;;;5297865;28;20099;-84
2022/06/06 09:20:51;;;;;;;2.90;1.65;;;;;;;;;;5303798;28;20086;-83
2022/06/06 09:23:42;;;;;;;3.38;1.92;;;;;;;;;;5301359;28;20044;-84
2022/06/06 09:26:25;;;;;;;4.40;1.73;;;;;;;;;;5293677;28;20497;-87
2022/06/06 09:29:12;;;;;;;5.82;1.52;;;;;;;;;;5289869;28;20508;-86
2022/06/06 09:31:57;;;;;;;8.43;2.10;;;;;;;;;;5290526;28;20025;-86
2022/06/06 09:34:38;;;;;;;4.53;1.23;;;;;;;;;;5325849;27;20036;-85
2022/06/06 09:37:15;;;;;;;3.10;0.90;;;;;;;;;;5306012;27;20033;-84
2022/06/06 09:40:05;;;;;;;1.50;0.80;;;;;;;;;;5306929;28;20028;-85
2022/06/06 09:43:00;;;;;;;2.42;1.02;;;;;;;;;;5325278;27;20037;-85
2022/06/06 09:45:34;;;;;;;4.53;0.98;;;;;;;;;;5290027;28;20043;-85
2022/06/06 09:48:23;;;;;;;5.25;1.25;;;;;;;;;;5299244;28;20102;-85
2022/06/06 09:51:01;;;;;;;1.85;0.90;;;;;;;;;;5290491;28;20124;-85
2022/06/06 09:53:41;;;;;;;7.90;1.17;;;;;;;;;;5296957;28;20040;-85
2022/06/06 09:59:36;;;;;;;4.85;0.77;;;;;;;;;;5299952;28;20032;-85
2022/06/06 10:02:20;;;;;;;1.80;0.57;;;;;;;;;;5298483;28;20041;-85
2022/06/06 10:05:02;;;;;;;2.15;0.82;;;;;;;;;;5304832;28;20035;-85
2022/06/06 10:07:52;;;;;;;3.10;0.95;;;;;;;;;;5292168;28;20099;-86
2022/06/06 10:10:32;;;;;;;3.88;0.90;;;;;;;;;;5293685;28;20127;-85
2022/06/06 10:13:10;;;;;;;3.97;1.77;;;;;;;;;;5304277;28;20051;-85
2022/06/06 10:15:49;;;;;;;1.48;0.70;;;;;;;;;;5303522;28;20036;-84
2022/06/06 10:18:23;;;;;;;4.15;1.58;;;;;;;;;;5302983;28;20362;-85
2022/06/06 10:21:17;;;;;;;3.22;1.35;;;;;;;;;;5296668;28;20039;-86
2022/06/06 10:24:07;;;;;;;2.90;1.10;;;;;;;;;;5290722;28;20646;-84
2022/06/06 10:26:56;;;;;;;2.45;1.20;;;;;;;;;;5299258;28;20041;-84
2022/06/06 10:32:42;;;;;;;2.95;1.08;;;;;;;;;;5291675;28;20661;-84
2022/06/06 10:35:14;;;;;;;2.35;0.88;;;;;;;;;;5302230;27;20767;-84
2022/06/06 10:37:51;;;;;;;3.40;1.05;;;;;;;;;;5294546;28;20024;-85
2022/06/06 10:40:41;;;;;;;4.15;0.85;;;;;;;;;;5294037;28;20044;-87
2022/06/06 10:43:31;;;;;;;2.30;0.90;;;;;;;;;;5302758;28;20040;-86
2022/06/06 10:46:08;;;;;;;1.67;0.70;;;;;;;;;;5295210;28;20028;-87
2022/06/06 10:48:54;;;;;;;3.63;0.80;;;;;;;;;;5300662;28;20039;-87
2022/06/06 10:51:38;;;;;;;;;;;;;;;;;;5292419;28;20048;-87
2022/06/06 10:54:18;;;;;;;3.17;1.00;;;;;;;;;;5291916;28;19917;-87
2022/06/06 10:57:08;;;;;;;2.15;0.93;;;;;;;;;;5295792;28;20168;-87
2022/06/06 10:59:39;;;;;;;6.93;1.05;;;;;;;;;;5324874;27;20033;-89
2022/06/06 11:02:29;;;;;;;1.38;0.52;;;;;;;;;;5297200;27;20082;-88
2022/06/06 11:05:13;;;;;;;3.53;0.90;;;;;;;;;;5321661;27;20028;-87
2022/06/06 11:07:57;;;;;;;8.55;1.08;;;;;;;;;;5306611;27;20066;-88
2022/06/06 11:10:38;;;;;;;1.98;0.82;;;;;;;;;;5329469;27;20039;-85
2022/06/06 11:13:24;;;;;;;3.22;1.10;;;;;;;;;;5335908;27;20495;-89
2022/06/06 11:16:00;;;;;;;;;;;;;;;;;;5336276;27;20027;-91
2022/06/06 11:18:47;;;;;;;;;;;;;;;;;;;;;
2022/06/06 11:21:22;;;;;;;1.90;0.90;;;;;;;;;;5348760;27;40481;-89
2022/06/06 11:24:20;;;;;;;4.68;0.85;;;;;;;;;;5335918;27;20032;-88
2022/06/06 11:27:05;;;;;;;1.42;0.75;;;;;;;;;;5301086;27;20037;-88
2022/06/06 11:29:55;;;;;;;6.07;1.45;;;;;;;;;;5337676;27;20024;-88
2022/06/06 11:32:48;;;;;;;4.47;0.95;;;;;;;;;;5319679;27;20028;-90
2022/06/06 11:35:31;;;;;;;2.83;0.63;;;;;;;;;;5321945;27;20078;-89
2022/06/06 11:38:24;;;;;;;2.53;0.60;;;;;;;;;;5320552;27;20079;-88
2022/06/06 11:40:55;;;;;;;2.42;0.88;;;;;;;;;;5328425;27;20480;-88
2022/06/06 11:43:29;;;;;;;1.83;0.73;;;;;;;;;;5313766;27;20086;-88
2022/06/06 11:46:01;;;;;;;3.00;0.95;;;;;;;;;;5324105;27;20277;-87
2022/06/06 11:48:47;;;;;;;2.07;0.80;;;;;;;;;;5304136;27;20032;-86
2022/06/06 11:51:18;;;;;;;;;;;;;;;;;;5315427;27;20243;-88
2022/06/06 11:54:16;;;;;;;3.72;0.98;;;;;;;;;;5306092;27;19922;-88
2022/06/06 11:57:01;;;;;;;5.57;1.15;;;;;;;;;;5326142;27;20096;-88
2022/06/06 11:59:51;;;;;;;2.28;1.10;;;;;;;;;;5321154;27;20063;-88
2022/06/06 12:02:46;;;;;;;4.30;0.90;;;;;;;;;;5323767;27;20456;-88
2022/06/06 12:05:25;;;;;;;5.40;1.73;;;;;;;;;;5320928;27;20558;-88
2022/06/06 12:08:12;;;;;;;4.95;0.93;;;;;;;;;;5295717;27;20067;-88
2022/06/06 12:10:44;;;;;;;2.33;1.02;;;;;;;;;;5308323;27;20123;-88
2022/06/06 12:13:15;;;;;;;3.10;0.90;;;;;;;;;;5316795;27;20437;-88
2022/06/06 12:16:05;;;;;;;1.73;0.70;;;;;;;;;;5315046;27;20015;-88
2022/06/06 12:18:44;;;;;;;4.20;0.77;;;;;;;;;;5324468;27;20031;-88
2022/06/06 12:21:28;;;;;;;4.55;0.82;;;;;;;;;;5316233;27;20481;-88
2022/06/06 12:24:22;;;;;;;4.22;0.80;;;;;;;;;;5327822;27;20070;-88
2022/06/06 12:27:14;;;;;;;2.65;0.95;;;;;;;;;;5331667;27;20029;-89
2022/06/06 12:29:51;;;;;;;5.18;0.63;;;;;;;;;;5298720;28;20036;-88
2022/06/06 12:32:40;;;;;;;2.40;0.93;;;;;;;;;;5320558;27;20032;-88
2022/06/06 12:35:15;;;;;;;5.68;0.82;;;;;;;;;;5330661;27;20040;-88
2022/06/06 12:38:05;;;;;;;3.08;1.00;;;;;;;;;;5317058;27;20033;-89
2022/06/06 12:41:02;;;;;;;3.20;0.80;;;;;;;;;;5328313;27;20499;-88
2022/06/06 12:43:54;;;;;;;3.45;0.93;;;;;;;;;;5311836;27;20053;-88
2022/06/06 12:46:42;;;;;;;2.75;0.80;;;;;;;;;;5326544;28;20777;-89
2022/06/06 12:49:16;;;;;;;2.85;0.95;;;;;;;;;;5304741;28;20082;-88
2022/06/06 12:51:50;;;;;;;3.65;0.90;;;;;;;;;;5325734;27;20440;-88
2022/06/06 12:57:51;;;;;;;4.97;1.15;;;;;;;;;;5261876;28;20049;-88
2022/06/06 13:03:31;;;;;;;2.85;1.20;;;;;;;;;;5327477;27;20048;-89
2022/06/06 13:06:44;;;;;;;2.72;0.90;;;;;;;;;;5312249;27;20027;-88
2022/06/06 13:09:24;;;;;;;2.42;0.98;;;;;;;;;;5251458;28;20306;-89
2022/06/06 13:12:14;;;;;;;3.97;1.05;;;;;;;;;;5254152;28;20041;-88
2022/06/06 13:14:45;;;;;;;1.63;0.90;;;;;;;;;;5300342;27;20040;-88
2022/06/06 13:17:26;;;;;;;7.93;1.30;;;;;;;;;;5320122;27;20043;-88
2022/06/06 13:20:08;;;;;;;3.65;1.13;;;;;;;;;;5327251;27;20035;-89
2022/06/06 13:23:08;;;;;;;7.07;1.30;;;;;;;;;;5325341;27;20070;-88
2022/06/06 13:25:50;;;;;;;4.45;1.15;;;;;;;;;;5296854;27;20021;-88
2022/06/06 13:28:31;;;;;;;4.57;1.20;;;;;;;;;;5324167;27;20032;-89
2022/06/06 13:31:08;;;;;;;3.38;1.20;;;;;;;;;;5329618;27;20048;-90
2022/06/06 13:33:58;;;;;;;3.60;1.30;;;;;;;;;;5324137;27;20051;-89
2022/06/06 13:36:48;;;;;;;4.53;1.20;;;;;;;;;;5361981;27;20030;-88
2022/06/06 13:39:47;;;;;;;2.88;1.25;;;;;;;;;;5358491;27;20059;-89
2022/06/06 13:42:26;;;;;;;10.07;1.60;;;;;;;;;;5328779;27;20142;-88
2022/06/06 13:45:17;;;;;;;6.85;1.60;;;;;;;;;;5347049;27;20043;-90
2022/06/06 13:48:07;;;;;;;3.67;1.10;;;;;;;;;;5329485;27;20028;-88
2022/06/06 13:50:46;;;;;;;7.55;1.60;;;;;;;;;;5328627;28;20016;-88
2022/06/06 13:53:20;;;;;;;3.17;1.27;;;;;;;;;;5297931;28;20039;-88
2022/06/06 13:56:13;;;;;;;3.38;1.38;;;;;;;;;;5307120;28;20033;-89
2022/06/06 13:58:48;;;;;;;3.45;1.00;;;;;;;;;;5321249;27;20477;-89
2022/06/06 14:01:26;;;;;;;2.45;1.08;;;;;;;;;;5292432;27;20033;-89
2022/06/06 14:04:16;;;;;;;2.08;1.10;;;;;;;;;;5319994;27;20052;-89
2022/06/06 14:06:59;;;;;;;2.25;1.10;;;;;;;;;;5326286;27;20481;-89
2022/06/06 14:09:37;;;;;;;3.45;1.30;;;;;;;;;;5300122;27;20476;-89
2022/06/06 14:12:08;;;;;;;3.97;1.33;;;;;;;;;;5315153;27;20028;-89
2022/06/06 14:14:41;;;;;;;2.33;0.98;;;;;;;;;;5305661;28;20488;-89
2022/06/06 14:17:13;;;;;;;6.55;1.58;;;;;;;;;;5303904;27;20602;-89
2022/06/06 14:19:46;;;;;;;4.28;1.00;;;;;;;;;;5327186;27;20055;-89
2022/06/06 14:22:37;;;;;;;3.97;1.23;;;;;;;;;;5304106;27;20044;-89
2022/06/06 14:25:10;;;;;;;2.95;1.10;;;;;;;;;;5317637;27;20059;-88
2022/06/06 14:27:47;;;;;;;2.45;1.25;;;;;;;;;;5317320;27;20016;-90
2022/06/06 14:30:24;;;;;;;3.35;1.10;;;;;;;;;;5299462;27;20033;-88
2022/06/06 14:33:00;;;;;;;2.78;1.10;;;;;;;;;;5300568;28;20118;-89
2022/06/06 14:35:33;;;;;;;4.40;1.60;;;;;;;;;;5314632;27;20111;-89
2022/06/06 14:38:11;;;;;;;3.60;1.13;;;;;;;;;;5297874;28;20042;-88
2022/06/06 14:40:42;;;;;;;3.95;1.35;;;;;;;;;;5316348;28;20107;-89
2022/06/06 14:43:14;;;;;;;2.75;1.20;;;;;;;;;;5316860;28;20172;-89
2022/06/06 14:45:52;;;;;;;5.90;1.40;;;;;;;;;;5296961;28;20431;-89
2022/06/06 14:48:55;;;;;;;3.55;1.08;;;;;;;;;;5304232;28;20370;-89
2022/06/06 14:51:37;;;;;;;2.05;1.02;;;;;;;;;;5303459;27;20036;-88
2022/06/06 14:54:12;;;;;;;4.07;1.48;;;;;;;;;;5305497;28;20044;-89
2022/06/06 14:56:51;;;;;;;4.22;1.40;;;;;;;;;;5298625;28;20035;-89
2022/06/06 14:59:38;;;;;;;5.38;1.33;;;;;;;;;;5293461;28;20040;-89
2022/06/06 15:02:11;;;;;;;4.85;1.38;;;;;;;;;;5317053;27;20076;-89
2022/06/06 15:04:43;;;;;;;2.30;1.13;;;;;;;;;;5293819;28;20032;-89
2022/06/06 15:07:18;;;;;;;4.22;1.45;;;;;;;;;;5318707;27;20066;-89
2022/06/06 15:09:59;;;;;;;5.82;1.90;;;;;;;;;;5313715;27;20039;-89
2022/06/06 15:12:31;;;;;;;3.13;1.50;;;;;;;;;;5295003;27;20429;-90
2022/06/06 15:15:08;;;;;;;3.78;1.70;;;;;;;;;;5295889;27;20472;-88
2022/06/06 15:17:47;;;;;;;3.42;1.70;;;;;;;;;;5296165;27;20556;-89
2022/06/06 15:20:30;;;;;;;3.00;2.58;;;;;;;;;;5315435;27;20032;-88
2022/06/06 15:23:05;;;;;;;6.88;2.17;;;;;;;;;;5315507;27;20400;-88
2022/06/06 15:25:50;;;;;;;5.73;2.23;;;;;;;;;;5326927;27;20079;-88
2022/06/06 15:28:30;;;;;;;6.18;2.45;;;;;;;;;;5309858;27;20039;-88
2022/06/06 15:31:10;;;;;;;4.05;2.22;;;;;;;;;;5319798;27;20040;-89
2022/06/06 15:34:00;;;;;;;6.50;2.05;;;;;;;;;;5304499;27;20036;-88
2022/06/06 15:36:44;;;;;;;4.65;1.80;;;;;;;;;;5332012;27;20036;-87
2022/06/06 15:39:41;;;;;;;5.32;1.90;;;;;;;;;;5331780;27;20065;-88
2022/06/06 15:42:12;;;;;;;;;;;;;;;;;;5298596;27;20036;-88
2022/06/06 15:44:57;;;;;;;3.63;1.60;;;;;;;;;;5328343;27;20225;-88
2022/06/06 15:47:47;;;;;;;3.40;2.30;;;;;;;;;;5322711;27;20388;-88
2022/06/06 15:50:35;;;;;;;3.90;1.60;;;;;;;;;;5326631;27;20093;-88
2022/06/06 15:53:39;;;;;;;5.07;2.17;;;;;;;;;;5327323;28;20020;-87
2022/06/06 15:56:30;;;;;;;4.38;1.55;;;;;;;;;;5290743;28;20048;-87
2022/06/06 15:59:12;;;;;;;4.07;2.20;;;;;;;;;;5328128;27;20431;-89
2022/06/06 16:02:04;;;;;;;3.22;2.40;;;;;;;;;;5286479;28;20029;-89
2022/06/06 16:04:37;;;;;;;4.97;2.75;;;;;;;;;;5324874;27;20408;-89
2022/06/06 16:07:35;;;;;;;7.00;2.25;;;;;;;;;;5330745;27;20026;-88
2022/06/06 16:13:56;;;;;;;4.32;1.95;;;;;;;;;;5271402;27;20393;-87
2022/06/06 16:16:32;;;;;;;3.17;2.10;;;;;;;;;;5316851;28;20048;-87
2022/06/06 16:19:22;;;;;;;4.38;2.22;;;;;;;;;;5324975;27;20095;-87
2022/06/06 16:22:11;;;;;;;4.57;2.45;;;;;;;;;;5338867;27;20345;-87
2022/06/06 16:25:01;;;;;;;5.22;2.63;;;;;;;;;;5325520;28;20150;-87
2022/06/06 16:27:42;;;;;;;5.00;2.30;;;;;;;;;;5305864;28;20028;-87
2022/06/06 16:30:16;;;;;;;7.97;2.63;;;;;;;;;;5305383;28;20035;-87
2022/06/06 16:33:06;;;;;;;3.55;2.45;;;;;;;;;;5320493;27;20025;-87
2022/06/06 16:35:46;;;;;;;5.43;3.00;;;;;;;;;;5304877;28;20092;-87